sensor_id;sensor_type;location;lat;lon;timestamp;P1;durP1;ratioP1;P2;durP2;ratioP2
82022;SDS011;71575;49.908;18.356;2023-09-19T00:02:32;16.05;;;11.35;;
82022;SDS011;71575;49.908;18.356;2023-09-19T00:05:28;19.27;;;12.52;;
82022;SDS011;71575;49.908;18.356;2023-09-19T00:08:24;18.35;;;13.13;;
82022;SDS011;71575;49.908;18.356;2023-09-19T00:11:20;18.80;;;13.05;;
82022;SDS011;71575;49.908;18.356;2023-09-19T00:14:07;17.35;;;10.68;;
82022;SDS011;71575;49.908;18.356;2023-09-19T00:16:48;15.57;;;11.57;;
82022;SDS011;71575;49.908;18.356;2023-09-19T00:19:43;20.10;;;12.60;;
82022;SDS011;71575;49.908;18.356;2023-09-19T00:22:39;15.55;;;11.55;;
82022;SDS011;71575;49.908;18.356;2023-09-19T00:25:35;16.02;;;11.40;;
82022;SDS011;71575;49.908;18.356;2023-09-19T00:28:31;16.63;;;12.00;;
82022;SDS011;71575;49.908;18.356;2023-09-19T00:31:27;17.02;;;12.63;;
82022;SDS011;71575;49.908;18.356;2023-09-19T00:34:07;15.20;;;11.45;;
82022;SDS011;71575;49.908;18.356;2023-09-19T00:36:48;16.92;;;12.55;;
82022;SDS011;71575;49.908;18.356;2023-09-19T00:39:43;14.95;;;10.60;;
82022;SDS011;71575;49.908;18.356;2023-09-19T00:42:24;19.33;;;11.43;;
82022;SDS011;71575;49.908;18.356;2023-09-19T00:45:05;15.13;;;11.23;;
82022;SDS011;71575;49.908;18.356;2023-09-19T00:48:01;17.63;;;11.73;;
82022;SDS011;71575;49.908;18.356;2023-09-19T00:50:42;14.85;;;11.02;;
82022;SDS011;71575;49.908;18.356;2023-09-19T00:53:38;14.80;;;10.63;;
82022;SDS011;71575;49.908;18.356;2023-09-19T00:56:33;16.55;;;10.75;;
82022;SDS011;71575;49.908;18.356;2023-09-19T00:59:29;17.52;;;11.70;;
82022;SDS011;71575;49.908;18.356;2023-09-19T01:02:24;16.10;;;12.23;;
82022;SDS011;71575;49.908;18.356;2023-09-19T01:05:20;17.13;;;8.75;;
82022;SDS011;71575;49.908;18.356;2023-09-19T01:08:15;17.95;;;12.05;;
82022;SDS011;71575;49.908;18.356;2023-09-19T01:14:10;16.63;;;11.95;;
82022;SDS011;71575;49.908;18.356;2023-09-19T01:17:08;16.50;;;12.20;;
82022;SDS011;71575;49.908;18.356;2023-09-19T01:30:11;17.27;;;12.75;;
82022;SDS011;71575;49.908;18.356;2023-09-19T01:33:09;18.38;;;13.40;;
82022;SDS011;71575;49.908;18.356;2023-09-19T01:36:04;16.90;;;11.52;;
82022;SDS011;71575;49.908;18.356;2023-09-19T01:39:00;18.40;;;12.05;;
82022;SDS011;71575;49.908;18.356;2023-09-19T01:42:07;14.98;;;10.10;;
82022;SDS011;71575;49.908;18.356;2023-09-19T01:45:12;17.92;;;11.82;;
82022;SDS011;71575;49.908;18.356;2023-09-19T01:51:20;19.05;;;11.18;;
82022;SDS011;71575;49.908;18.356;2023-09-19T01:54:26;15.13;;;10.13;;
82022;SDS011;71575;49.908;18.356;2023-09-19T01:57:29;17.80;;;10.38;;
82022;SDS011;71575;49.908;18.356;2023-09-19T02:00:29;15.10;;;10.05;;
82022;SDS011;71575;49.908;18.356;2023-09-19T02:03:14;16.92;;;11.43;;
82022;SDS011;71575;49.908;18.356;2023-09-19T02:05:55;18.00;;;11.68;;
82022;SDS011;71575;49.908;18.356;2023-09-19T02:08:50;16.60;;;12.40;;
82022;SDS011;71575;49.908;18.356;2023-09-19T02:11:46;16.58;;;11.75;;
82022;SDS011;71575;49.908;18.356;2023-09-19T02:14:41;17.00;;;11.27;;
82022;SDS011;71575;49.908;18.356;2023-09-19T02:17:36;16.20;;;11.75;;
82022;SDS011;71575;49.908;18.356;2023-09-19T02:20:31;19.92;;;10.10;;
82022;SDS011;71575;49.908;18.356;2023-09-19T02:23:27;18.27;;;11.45;;
82022;SDS011;71575;49.908;18.356;2023-09-19T02:26:15;14.95;;;12.35;;
82022;SDS011;71575;49.908;18.356;2023-09-19T02:28:55;17.38;;;11.95;;
82022;SDS011;71575;49.908;18.356;2023-09-19T02:31:51;14.82;;;10.98;;
82022;SDS011;71575;49.908;18.356;2023-09-19T02:34:46;16.10;;;11.77;;
82022;SDS011;71575;49.908;18.356;2023-09-19T02:37:41;19.65;;;12.60;;
82022;SDS011;71575;49.908;18.356;2023-09-19T02:40:37;20.27;;;12.60;;
82022;SDS011;71575;49.908;18.356;2023-09-19T02:43:32;17.95;;;12.18;;
82022;SDS011;71575;49.908;18.356;2023-09-19T02:46:28;16.02;;;9.82;;
82022;SDS011;71575;49.908;18.356;2023-09-19T02:49:23;20.10;;;13.23;;
82022;SDS011;71575;49.908;18.356;2023-09-19T02:52:04;17.27;;;12.75;;
82022;SDS011;71575;49.908;18.356;2023-09-19T02:54:44;15.60;;;10.35;;
82022;SDS011;71575;49.908;18.356;2023-09-19T02:57:32;31.73;;;19.88;;
82022;SDS011;71575;49.908;18.356;2023-09-19T03:00:13;22.20;;;14.50;;
82022;SDS011;71575;49.908;18.356;2023-09-19T03:03:08;18.88;;;12.95;;
82022;SDS011;71575;49.908;18.356;2023-09-19T03:06:05;18.40;;;13.10;;
82022;SDS011;71575;49.908;18.356;2023-09-19T03:09:00;20.05;;;14.18;;
82022;SDS011;71575;49.908;18.356;2023-09-19T03:11:56;17.65;;;11.00;;
82022;SDS011;71575;49.908;18.356;2023-09-19T03:14:51;20.98;;;13.23;;
82022;SDS011;71575;49.908;18.356;2023-09-19T03:17:46;19.05;;;14.15;;
82022;SDS011;71575;49.908;18.356;2023-09-19T03:20:43;19.85;;;13.13;;
82022;SDS011;71575;49.908;18.356;2023-09-19T03:23:38;20.85;;;11.98;;
82022;SDS011;71575;49.908;18.356;2023-09-19T03:26:33;18.33;;;12.35;;
82022;SDS011;71575;49.908;18.356;2023-09-19T03:29:29;21.50;;;14.43;;
82022;SDS011;71575;49.908;18.356;2023-09-19T03:32:13;18.95;;;14.18;;
82022;SDS011;71575;49.908;18.356;2023-09-19T03:34:53;21.33;;;15.20;;
82022;SDS011;71575;49.908;18.356;2023-09-19T03:37:49;23.80;;;14.20;;
82022;SDS011;71575;49.908;18.356;2023-09-19T03:40:44;19.70;;;14.20;;
82022;SDS011;71575;49.908;18.356;2023-09-19T03:43:39;22.42;;;15.18;;
82022;SDS011;71575;49.908;18.356;2023-09-19T03:46:34;22.67;;;14.85;;
82022;SDS011;71575;49.908;18.356;2023-09-19T03:49:30;22.92;;;16.95;;
82022;SDS011;71575;49.908;18.356;2023-09-19T03:52:18;19.70;;;13.38;;
82022;SDS011;71575;49.908;18.356;2023-09-19T03:54:58;21.75;;;16.33;;
82022;SDS011;71575;49.908;18.356;2023-09-19T03:57:39;21.48;;;14.57;;
82022;SDS011;71575;49.908;18.356;2023-09-19T04:00:20;21.80;;;15.32;;
82022;SDS011;71575;49.908;18.356;2023-09-19T04:03:15;24.52;;;14.15;;
82022;SDS011;71575;49.908;18.356;2023-09-19T04:05:56;20.17;;;14.88;;
82022;SDS011;71575;49.908;18.356;2023-09-19T04:08:36;21.85;;;16.70;;
82022;SDS011;71575;49.908;18.356;2023-09-19T04:11:31;21.63;;;14.38;;
82022;SDS011;71575;49.908;18.356;2023-09-19T04:14:27;22.42;;;13.40;;
82022;SDS011;71575;49.908;18.356;2023-09-19T04:17:23;21.02;;;13.27;;
82022;SDS011;71575;49.908;18.356;2023-09-19T04:20:18;20.67;;;13.07;;
82022;SDS011;71575;49.908;18.356;2023-09-19T04:23:14;19.08;;;12.43;;
82022;SDS011;71575;49.908;18.356;2023-09-19T04:26:09;20.13;;;12.40;;
82022;SDS011;71575;49.908;18.356;2023-09-19T04:29:04;16.05;;;10.57;;
82022;SDS011;71575;49.908;18.356;2023-09-19T04:32:00;16.83;;;12.73;;
82022;SDS011;71575;49.908;18.356;2023-09-19T04:34:55;18.85;;;11.85;;
82022;SDS011;71575;49.908;18.356;2023-09-19T04:37:50;17.80;;;13.48;;
82022;SDS011;71575;49.908;18.356;2023-09-19T04:40:46;17.33;;;12.68;;
82022;SDS011;71575;49.908;18.356;2023-09-19T04:43:42;17.90;;;9.73;;
82022;SDS011;71575;49.908;18.356;2023-09-19T04:46:37;17.15;;;11.90;;
82022;SDS011;71575;49.908;18.356;2023-09-19T04:49:32;14.93;;;9.02;;
82022;SDS011;71575;49.908;18.356;2023-09-19T04:52:29;16.52;;;10.55;;
82022;SDS011;71575;49.908;18.356;2023-09-19T04:55:11;17.02;;;9.13;;
82022;SDS011;71575;49.908;18.356;2023-09-19T04:57:53;12.30;;;7.65;;
82022;SDS011;71575;49.908;18.356;2023-09-19T05:00:34;13.32;;;8.27;;
82022;SDS011;71575;49.908;18.356;2023-09-19T05:03:14;11.20;;;6.47;;
82022;SDS011;71575;49.908;18.356;2023-09-19T05:06:10;11.40;;;7.32;;
82022;SDS011;71575;49.908;18.356;2023-09-19T05:09:05;11.50;;;6.68;;
82022;SDS011;71575;49.908;18.356;2023-09-19T05:12:00;9.13;;;5.25;;
82022;SDS011;71575;49.908;18.356;2023-09-19T05:14:55;8.43;;;4.15;;
82022;SDS011;71575;49.908;18.356;2023-09-19T05:17:52;7.15;;;3.78;;
82022;SDS011;71575;49.908;18.356;2023-09-19T05:20:47;7.75;;;2.72;;
82022;SDS011;71575;49.908;18.356;2023-09-19T05:23:43;6.47;;;2.22;;
82022;SDS011;71575;49.908;18.356;2023-09-19T05:26:39;7.05;;;2.95;;
82022;SDS011;71575;49.908;18.356;2023-09-19T05:29:34;4.07;;;1.10;;
82022;SDS011;71575;49.908;18.356;2023-09-19T05:32:30;5.18;;;1.35;;
82022;SDS011;71575;49.908;18.356;2023-09-19T05:35:25;4.47;;;1.20;;
82022;SDS011;71575;49.908;18.356;2023-09-19T05:38:20;4.07;;;0.90;;
82022;SDS011;71575;49.908;18.356;2023-09-19T05:41:15;4.25;;;0.95;;
82022;SDS011;71575;49.908;18.356;2023-09-19T05:44:11;3.60;;;0.88;;
82022;SDS011;71575;49.908;18.356;2023-09-19T05:47:06;4.75;;;0.82;;
82022;SDS011;71575;49.908;18.356;2023-09-19T05:50:02;5.20;;;0.90;;
82022;SDS011;71575;49.908;18.356;2023-09-19T05:52:57;4.82;;;0.70;;
82022;SDS011;71575;49.908;18.356;2023-09-19T05:55:53;4.72;;;0.77;;
82022;SDS011;71575;49.908;18.356;2023-09-19T05:58:48;5.70;;;1.25;;
82022;SDS011;71575;49.908;18.356;2023-09-19T06:01:44;4.28;;;1.27;;
82022;SDS011;71575;49.908;18.356;2023-09-19T06:04:25;5.10;;;1.15;;
82022;SDS011;71575;49.908;18.356;2023-09-19T06:07:06;5.82;;;1.65;;
82022;SDS011;71575;49.908;18.356;2023-09-19T06:09:48;5.97;;;2.28;;
82022;SDS011;71575;49.908;18.356;2023-09-19T06:12:29;8.35;;;1.90;;
82022;SDS011;71575;49.908;18.356;2023-09-19T06:15:10;5.22;;;1.75;;
82022;SDS011;71575;49.908;18.356;2023-09-19T06:17:55;4.80;;;1.75;;
82022;SDS011;71575;49.908;18.356;2023-09-19T06:20:51;4.40;;;2.13;;
82022;SDS011;71575;49.908;18.356;2023-09-19T06:23:46;6.00;;;1.55;;
82022;SDS011;71575;49.908;18.356;2023-09-19T06:26:41;7.13;;;2.25;;
82022;SDS011;71575;49.908;18.356;2023-09-19T06:29:37;4.82;;;1.23;;
82022;SDS011;71575;49.908;18.356;2023-09-19T06:32:32;6.47;;;1.38;;
82022;SDS011;71575;49.908;18.356;2023-09-19T06:35:28;6.82;;;2.05;;
82022;SDS011;71575;49.908;18.356;2023-09-19T06:38:23;5.25;;;1.95;;
82022;SDS011;71575;49.908;18.356;2023-09-19T06:41:19;5.28;;;1.30;;
82022;SDS011;71575;49.908;18.356;2023-09-19T06:44:14;5.75;;;1.88;;
82022;SDS011;71575;49.908;18.356;2023-09-19T06:47:02;6.50;;;2.00;;
82022;SDS011;71575;49.908;18.356;2023-09-19T06:49:42;5.68;;;1.70;;
82022;SDS011;71575;49.908;18.356;2023-09-19T06:52:38;5.32;;;2.15;;
82022;SDS011;71575;49.908;18.356;2023-09-19T06:55:19;6.55;;;2.72;;
82022;SDS011;71575;49.908;18.356;2023-09-19T06:58:00;7.47;;;2.80;;
82022;SDS011;71575;49.908;18.356;2023-09-19T07:00:55;7.35;;;2.10;;
82022;SDS011;71575;49.908;18.356;2023-09-19T07:03:36;7.03;;;1.38;;
82022;SDS011;71575;49.908;18.356;2023-09-19T07:06:16;7.05;;;3.42;;
82022;SDS011;71575;49.908;18.356;2023-09-19T07:09:11;5.75;;;1.45;;
82022;SDS011;71575;49.908;18.356;2023-09-19T07:12:07;7.53;;;2.63;;
82022;SDS011;71575;49.908;18.356;2023-09-19T07:14:47;6.82;;;2.85;;
82022;SDS011;71575;49.908;18.356;2023-09-19T07:17:28;8.15;;;3.35;;
82022;SDS011;71575;49.908;18.356;2023-09-19T07:20:09;8.48;;;3.20;;
82022;SDS011;71575;49.908;18.356;2023-09-19T07:23:04;7.93;;;3.70;;
82022;SDS011;71575;49.908;18.356;2023-09-19T07:26:00;9.43;;;3.50;;
82022;SDS011;71575;49.908;18.356;2023-09-19T07:28:41;8.38;;;4.10;;
82022;SDS011;71575;49.908;18.356;2023-09-19T07:31:22;9.98;;;4.35;;
82022;SDS011;71575;49.908;18.356;2023-09-19T07:34:17;10.25;;;3.80;;
82022;SDS011;71575;49.908;18.356;2023-09-19T07:37:13;6.57;;;2.17;;
82022;SDS011;71575;49.908;18.356;2023-09-19T07:39:53;5.65;;;2.47;;
82022;SDS011;71575;49.908;18.356;2023-09-19T07:42:34;6.53;;;3.60;;
82022;SDS011;71575;49.908;18.356;2023-09-19T07:45:14;5.60;;;2.15;;
82022;SDS011;71575;49.908;18.356;2023-09-19T07:48:10;5.50;;;1.30;;
82022;SDS011;71575;49.908;18.356;2023-09-19T07:51:05;5.68;;;2.45;;
82022;SDS011;71575;49.908;18.356;2023-09-19T07:54:01;4.93;;;1.17;;
82022;SDS011;71575;49.908;18.356;2023-09-19T07:56:42;6.03;;;3.22;;
82022;SDS011;71575;49.908;18.356;2023-09-19T07:59:22;5.70;;;2.83;;
82022;SDS011;71575;49.908;18.356;2023-09-19T08:02:18;5.97;;;2.85;;
82022;SDS011;71575;49.908;18.356;2023-09-19T08:05:13;8.30;;;2.80;;
82022;SDS011;71575;49.908;18.356;2023-09-19T08:08:09;6.93;;;3.47;;
82022;SDS011;71575;49.908;18.356;2023-09-19T08:10:56;7.45;;;3.13;;
82022;SDS011;71575;49.908;18.356;2023-09-19T08:13:36;5.78;;;3.00;;
82022;SDS011;71575;49.908;18.356;2023-09-19T08:16:18;7.43;;;3.67;;
82022;SDS011;71575;49.908;18.356;2023-09-19T08:18:58;7.25;;;3.83;;
82022;SDS011;71575;49.908;18.356;2023-09-19T08:21:39;6.85;;;3.58;;
82022;SDS011;71575;49.908;18.356;2023-09-19T08:24:19;10.68;;;4.80;;
82022;SDS011;71575;49.908;18.356;2023-09-19T08:27:15;7.05;;;4.95;;
82022;SDS011;71575;49.908;18.356;2023-09-19T08:30:10;7.60;;;5.10;;
82022;SDS011;71575;49.908;18.356;2023-09-19T08:32:55;8.30;;;5.10;;
82022;SDS011;71575;49.908;18.356;2023-09-19T08:35:37;8.65;;;5.43;;
82022;SDS011;71575;49.908;18.356;2023-09-19T08:38:19;10.18;;;4.20;;
82022;SDS011;71575;49.908;18.356;2023-09-19T08:41:00;8.00;;;5.28;;
82022;SDS011;71575;49.908;18.356;2023-09-19T08:46:22;6.90;;;3.77;;
82022;SDS011;71575;49.908;18.356;2023-09-19T08:52:41;7.82;;;3.40;;
82022;SDS011;71575;49.908;18.356;2023-09-19T08:55:37;6.82;;;3.63;;
82022;SDS011;71575;49.908;18.356;2023-09-19T09:01:06;7.03;;;3.72;;
82022;SDS011;71575;49.908;18.356;2023-09-19T09:03:47;7.03;;;4.03;;
82022;SDS011;71575;49.908;18.356;2023-09-19T09:06:28;8.20;;;4.22;;
82022;SDS011;71575;49.908;18.356;2023-09-19T09:09:24;6.65;;;4.00;;
82022;SDS011;71575;49.908;18.356;2023-09-19T09:12:20;7.18;;;5.03;;
82022;SDS011;71575;49.908;18.356;2023-09-19T09:15:05;6.90;;;3.78;;
82022;SDS011;71575;49.908;18.356;2023-09-19T09:17:46;8.43;;;4.03;;
82022;SDS011;71575;49.908;18.356;2023-09-19T09:20:35;7.57;;;2.80;;
82022;SDS011;71575;49.908;18.356;2023-09-19T09:23:15;7.72;;;4.72;;
82022;SDS011;71575;49.908;18.356;2023-09-19T09:26:11;6.53;;;4.03;;
82022;SDS011;71575;49.908;18.356;2023-09-19T09:28:51;6.18;;;2.95;;
82022;SDS011;71575;49.908;18.356;2023-09-19T09:31:32;5.60;;;3.33;;
82022;SDS011;71575;49.908;18.356;2023-09-19T09:34:34;6.35;;;3.95;;
82022;SDS011;71575;49.908;18.356;2023-09-19T09:37:29;7.90;;;5.38;;
82022;SDS011;71575;49.908;18.356;2023-09-19T09:40:10;8.88;;;5.82;;
82022;SDS011;71575;49.908;18.356;2023-09-19T09:43:09;9.35;;;5.32;;
82022;SDS011;71575;49.908;18.356;2023-09-19T09:46:10;8.32;;;4.80;;
82022;SDS011;71575;49.908;18.356;2023-09-19T09:51:35;7.65;;;5.32;;
82022;SDS011;71575;49.908;18.356;2023-09-19T09:54:30;7.68;;;4.75;;
82022;SDS011;71575;49.908;18.356;2023-09-19T09:57:11;8.43;;;5.25;;
82022;SDS011;71575;49.908;18.356;2023-09-19T09:59:53;7.82;;;4.90;;
82022;SDS011;71575;49.908;18.356;2023-09-19T10:05:33;9.80;;;5.35;;
82022;SDS011;71575;49.908;18.356;2023-09-19T10:08:14;9.95;;;6.20;;
82022;SDS011;71575;49.908;18.356;2023-09-19T10:10:55;8.93;;;5.85;;
82022;SDS011;71575;49.908;18.356;2023-09-19T10:13:35;7.93;;;3.60;;
82022;SDS011;71575;49.908;18.356;2023-09-19T10:16:31;8.45;;;5.68;;
82022;SDS011;71575;49.908;18.356;2023-09-19T10:19:29;10.00;;;4.80;;
82022;SDS011;71575;49.908;18.356;2023-09-19T10:22:26;7.32;;;3.25;;
82022;SDS011;71575;49.908;18.356;2023-09-19T10:36:27;7.38;;;3.75;;
82022;SDS011;71575;49.908;18.356;2023-09-19T10:39:27;7.95;;;3.47;;
82022;SDS011;71575;49.908;18.356;2023-09-19T10:42:25;7.93;;;3.80;;
82022;SDS011;71575;49.908;18.356;2023-09-19T10:45:22;7.60;;;3.55;;
82022;SDS011;71575;49.908;18.356;2023-09-19T10:48:03;7.32;;;3.30;;
82022;SDS011;71575;49.908;18.356;2023-09-19T10:54:06;7.78;;;3.30;;
82022;SDS011;71575;49.908;18.356;2023-09-19T10:57:03;9.75;;;2.83;;
82022;SDS011;71575;49.908;18.356;2023-09-19T11:00:06;7.95;;;2.53;;
82022;SDS011;71575;49.908;18.356;2023-09-19T11:03:20;5.30;;;2.45;;
82022;SDS011;71575;49.908;18.356;2023-09-19T11:06:03;5.30;;;1.77;;
82022;SDS011;71575;49.908;18.356;2023-09-19T11:11:52;5.43;;;1.80;;
82022;SDS011;71575;49.908;18.356;2023-09-19T11:14:48;4.55;;;1.40;;
82022;SDS011;71575;49.908;18.356;2023-09-19T11:17:32;5.85;;;1.33;;
82022;SDS011;71575;49.908;18.356;2023-09-19T11:26:10;5.35;;;1.48;;
82022;SDS011;71575;49.908;18.356;2023-09-19T11:29:37;5.55;;;1.02;;
82022;SDS011;71575;49.908;18.356;2023-09-19T11:39:01;5.63;;;1.13;;
82022;SDS011;71575;49.908;18.356;2023-09-19T11:41:57;4.65;;;1.23;;
82022;SDS011;71575;49.908;18.356;2023-09-19T11:44:52;6.10;;;1.05;;
82022;SDS011;71575;49.908;18.356;2023-09-19T11:47:48;5.88;;;1.52;;
82022;SDS011;71575;49.908;18.356;2023-09-19T11:50:43;5.20;;;0.70;;
82022;SDS011;71575;49.908;18.356;2023-09-19T11:53:40;4.38;;;1.05;;
82022;SDS011;71575;49.908;18.356;2023-09-19T11:56:38;5.07;;;0.85;;
82022;SDS011;71575;49.908;18.356;2023-09-19T11:59:38;4.55;;;1.00;;
82022;SDS011;71575;49.908;18.356;2023-09-19T12:02:27;3.72;;;0.90;;
82022;SDS011;71575;49.908;18.356;2023-09-19T12:05:29;5.20;;;0.77;;
82022;SDS011;71575;49.908;18.356;2023-09-19T12:08:45;4.20;;;0.98;;
82022;SDS011;71575;49.908;18.356;2023-09-19T12:11:41;4.20;;;0.85;;
82022;SDS011;71575;49.908;18.356;2023-09-19T12:14:37;4.50;;;1.08;;
82022;SDS011;71575;49.908;18.356;2023-09-19T12:17:40;4.78;;;1.42;;
82022;SDS011;71575;49.908;18.356;2023-09-19T12:20:43;5.50;;;1.05;;
82022;SDS011;71575;49.908;18.356;2023-09-19T12:23:39;5.18;;;1.23;;
82022;SDS011;71575;49.908;18.356;2023-09-19T12:26:38;4.15;;;0.88;;
82022;SDS011;71575;49.908;18.356;2023-09-19T12:29:20;4.63;;;1.00;;
82022;SDS011;71575;49.908;18.356;2023-09-19T12:32:01;4.15;;;1.10;;
82022;SDS011;71575;49.908;18.356;2023-09-19T12:34:57;3.30;;;0.93;;
82022;SDS011;71575;49.908;18.356;2023-09-19T12:37:52;4.88;;;1.40;;
82022;SDS011;71575;49.908;18.356;2023-09-19T12:40:48;3.47;;;0.60;;
82022;SDS011;71575;49.908;18.356;2023-09-19T12:43:44;6.35;;;1.15;;
82022;SDS011;71575;49.908;18.356;2023-09-19T12:46:39;4.50;;;1.05;;
82022;SDS011;71575;49.908;18.356;2023-09-19T12:49:35;3.53;;;0.90;;
82022;SDS011;71575;49.908;18.356;2023-09-19T12:52:34;5.13;;;0.80;;
82022;SDS011;71575;49.908;18.356;2023-09-19T12:55:31;3.90;;;1.13;;
82022;SDS011;71575;49.908;18.356;2023-09-19T12:58:26;5.43;;;0.98;;
82022;SDS011;71575;49.908;18.356;2023-09-19T13:01:25;3.83;;;1.00;;
82022;SDS011;71575;49.908;18.356;2023-09-19T13:04:21;4.72;;;1.38;;
82022;SDS011;71575;49.908;18.356;2023-09-19T13:07:02;3.30;;;0.60;;
82022;SDS011;71575;49.908;18.356;2023-09-19T13:10:01;6.43;;;1.80;;
82022;SDS011;71575;49.908;18.356;2023-09-19T13:12:58;5.18;;;1.85;;
82022;SDS011;71575;49.908;18.356;2023-09-19T13:16:04;4.00;;;0.95;;
82022;SDS011;71575;49.908;18.356;2023-09-19T13:18:46;4.00;;;1.23;;
82022;SDS011;71575;49.908;18.356;2023-09-19T13:21:29;4.50;;;1.20;;
82022;SDS011;71575;49.908;18.356;2023-09-19T13:24:21;4.82;;;0.68;;
82022;SDS011;71575;49.908;18.356;2023-09-19T13:27:18;9.43;;;4.93;;
82022;SDS011;71575;49.908;18.356;2023-09-19T13:30:13;8.43;;;2.40;;
82022;SDS011;71575;49.908;18.356;2023-09-19T13:33:07;7.55;;;1.88;;
82022;SDS011;71575;49.908;18.356;2023-09-19T13:35:49;4.18;;;1.70;;
82022;SDS011;71575;49.908;18.356;2023-09-19T13:38:44;7.85;;;1.92;;
82022;SDS011;71575;49.908;18.356;2023-09-19T13:41:39;6.35;;;1.60;;
82022;SDS011;71575;49.908;18.356;2023-09-19T13:44:35;10.40;;;2.38;;
82022;SDS011;71575;49.908;18.356;2023-09-19T13:47:30;4.57;;;1.77;;
82022;SDS011;71575;49.908;18.356;2023-09-19T13:50:26;4.85;;;1.52;;
82022;SDS011;71575;49.908;18.356;2023-09-19T13:53:22;4.53;;;1.10;;
82022;SDS011;71575;49.908;18.356;2023-09-19T13:56:17;4.35;;;1.10;;
82022;SDS011;71575;49.908;18.356;2023-09-19T13:58:58;3.50;;;0.90;;
82022;SDS011;71575;49.908;18.356;2023-09-19T14:01:39;4.10;;;1.30;;
82022;SDS011;71575;49.908;18.356;2023-09-19T14:04:20;5.25;;;1.17;;
82022;SDS011;71575;49.908;18.356;2023-09-19T14:07:00;3.63;;;1.00;;
82022;SDS011;71575;49.908;18.356;2023-09-19T14:09:41;3.92;;;0.95;;
82022;SDS011;71575;49.908;18.356;2023-09-19T14:12:22;3.30;;;0.75;;
82022;SDS011;71575;49.908;18.356;2023-09-19T14:15:06;4.72;;;2.30;;
82022;SDS011;71575;49.908;18.356;2023-09-19T14:17:47;4.93;;;1.75;;
82022;SDS011;71575;49.908;18.356;2023-09-19T14:20:43;4.38;;;1.20;;
82022;SDS011;71575;49.908;18.356;2023-09-19T14:23:38;4.53;;;1.63;;
82022;SDS011;71575;49.908;18.356;2023-09-19T14:26:33;4.43;;;1.25;;
82022;SDS011;71575;49.908;18.356;2023-09-19T14:29:29;5.22;;;1.25;;
82022;SDS011;71575;49.908;18.356;2023-09-19T14:32:25;4.63;;;1.02;;
82022;SDS011;71575;49.908;18.356;2023-09-19T14:35:07;4.15;;;1.70;;
82022;SDS011;71575;49.908;18.356;2023-09-19T14:37:47;4.30;;;1.27;;
82022;SDS011;71575;49.908;18.356;2023-09-19T14:40:43;4.03;;;0.90;;
82022;SDS011;71575;49.908;18.356;2023-09-19T14:43:38;4.10;;;1.05;;
82022;SDS011;71575;49.908;18.356;2023-09-19T14:46:35;5.50;;;1.80;;
82022;SDS011;71575;49.908;18.356;2023-09-19T14:49:33;4.57;;;1.23;;
82022;SDS011;71575;49.908;18.356;2023-09-19T14:52:29;3.92;;;1.27;;
82022;SDS011;71575;49.908;18.356;2023-09-19T14:55:24;4.35;;;0.90;;
82022;SDS011;71575;49.908;18.356;2023-09-19T14:58:20;4.75;;;1.67;;
82022;SDS011;71575;49.908;18.356;2023-09-19T15:01:15;4.05;;;1.35;;
82022;SDS011;71575;49.908;18.356;2023-09-19T15:04:11;5.07;;;1.52;;
82022;SDS011;71575;49.908;18.356;2023-09-19T15:07:06;4.38;;;1.48;;
82022;SDS011;71575;49.908;18.356;2023-09-19T15:10:02;5.15;;;1.75;;
82022;SDS011;71575;49.908;18.356;2023-09-19T15:12:43;5.35;;;1.52;;
82022;SDS011;71575;49.908;18.356;2023-09-19T15:15:27;4.28;;;1.10;;
82022;SDS011;71575;49.908;18.356;2023-09-19T15:18:22;4.85;;;1.30;;
82022;SDS011;71575;49.908;18.356;2023-09-19T15:21:17;5.22;;;1.05;;
82022;SDS011;71575;49.908;18.356;2023-09-19T15:24:13;4.10;;;1.30;;
82022;SDS011;71575;49.908;18.356;2023-09-19T15:27:08;5.47;;;1.17;;
82022;SDS011;71575;49.908;18.356;2023-09-19T15:30:03;3.97;;;1.00;;
82022;SDS011;71575;49.908;18.356;2023-09-19T15:32:59;3.97;;;1.30;;
82022;SDS011;71575;49.908;18.356;2023-09-19T15:36:08;4.68;;;1.20;;
82022;SDS011;71575;49.908;18.356;2023-09-19T15:42:02;3.83;;;1.10;;
82022;SDS011;71575;49.908;18.356;2023-09-19T15:44:57;5.95;;;3.22;;
82022;SDS011;71575;49.908;18.356;2023-09-19T15:47:53;4.80;;;1.30;;
82022;SDS011;71575;49.908;18.356;2023-09-19T15:50:48;3.78;;;1.00;;
82022;SDS011;71575;49.908;18.356;2023-09-19T15:53:45;4.43;;;1.33;;
82022;SDS011;71575;49.908;18.356;2023-09-19T15:56:44;6.00;;;1.55;;
82022;SDS011;71575;49.908;18.356;2023-09-19T15:59:40;10.20;;;4.95;;
82022;SDS011;71575;49.908;18.356;2023-09-19T16:02:36;6.65;;;2.88;;
82022;SDS011;71575;49.908;18.356;2023-09-19T16:05:35;6.13;;;2.35;;
82022;SDS011;71575;49.908;18.356;2023-09-19T16:08:33;5.13;;;1.80;;
82022;SDS011;71575;49.908;18.356;2023-09-19T16:11:29;4.90;;;1.50;;
82022;SDS011;71575;49.908;18.356;2023-09-19T16:14:27;5.45;;;1.92;;
82022;SDS011;71575;49.908;18.356;2023-09-19T16:17:22;4.93;;;1.55;;
82022;SDS011;71575;49.908;18.356;2023-09-19T16:20:18;9.98;;;5.03;;
82022;SDS011;71575;49.908;18.356;2023-09-19T16:23:13;8.50;;;4.28;;
82022;SDS011;71575;49.908;18.356;2023-09-19T16:26:08;5.13;;;1.52;;
82022;SDS011;71575;49.908;18.356;2023-09-19T16:29:04;4.90;;;1.92;;
82022;SDS011;71575;49.908;18.356;2023-09-19T16:31:59;4.40;;;1.42;;
82022;SDS011;71575;49.908;18.356;2023-09-19T16:34:54;5.03;;;1.95;;
82022;SDS011;71575;49.908;18.356;2023-09-19T16:37:49;5.38;;;2.42;;
82022;SDS011;71575;49.908;18.356;2023-09-19T16:40:52;6.80;;;3.63;;
82022;SDS011;71575;49.908;18.356;2023-09-19T16:43:51;6.63;;;3.30;;
82022;SDS011;71575;49.908;18.356;2023-09-19T16:46:31;11.10;;;5.78;;
82022;SDS011;71575;49.908;18.356;2023-09-19T16:49:12;8.00;;;4.90;;
82022;SDS011;71575;49.908;18.356;2023-09-19T16:52:07;6.68;;;4.60;;
82022;SDS011;71575;49.908;18.356;2023-09-19T16:55:03;10.57;;;6.32;;
82022;SDS011;71575;49.908;18.356;2023-09-19T16:57:58;9.35;;;5.72;;
82022;SDS011;71575;49.908;18.356;2023-09-19T17:00:54;7.15;;;4.13;;
82022;SDS011;71575;49.908;18.356;2023-09-19T17:03:49;7.32;;;3.47;;
82022;SDS011;71575;49.908;18.356;2023-09-19T17:06:44;7.05;;;3.10;;
82022;SDS011;71575;49.908;18.356;2023-09-19T17:09:40;7.18;;;2.92;;
82022;SDS011;71575;49.908;18.356;2023-09-19T17:12:35;4.85;;;1.80;;
82022;SDS011;71575;49.908;18.356;2023-09-19T17:15:32;8.02;;;4.32;;
82022;SDS011;71575;49.908;18.356;2023-09-19T17:18:27;6.53;;;3.17;;
82022;SDS011;71575;49.908;18.356;2023-09-19T17:21:23;6.80;;;2.75;;
82022;SDS011;71575;49.908;18.356;2023-09-19T17:24:19;9.07;;;3.35;;
82022;SDS011;71575;49.908;18.356;2023-09-19T17:27:15;7.50;;;3.42;;
82022;SDS011;71575;49.908;18.356;2023-09-19T17:30:12;6.85;;;3.03;;
82022;SDS011;71575;49.908;18.356;2023-09-19T17:33:08;10.25;;;3.28;;
82022;SDS011;71575;49.908;18.356;2023-09-19T17:36:11;8.30;;;2.75;;
82022;SDS011;71575;49.908;18.356;2023-09-19T17:38:53;6.22;;;2.75;;
82022;SDS011;71575;49.908;18.356;2023-09-19T17:41:50;5.65;;;2.60;;
82022;SDS011;71575;49.908;18.356;2023-09-19T17:44:45;6.55;;;2.05;;
82022;SDS011;71575;49.908;18.356;2023-09-19T17:47:40;8.80;;;4.15;;
82022;SDS011;71575;49.908;18.356;2023-09-19T17:50:37;6.57;;;3.17;;
82022;SDS011;71575;49.908;18.356;2023-09-19T17:53:33;6.35;;;2.45;;
82022;SDS011;71575;49.908;18.356;2023-09-19T17:56:33;9.20;;;4.18;;